createdAt,value
2022-11-16T00:01:17.423Z,11.58
2022-11-16T00:03:45.731Z,11.86
2022-11-16T00:06:15.730Z,11.39
2022-11-16T00:08:45.524Z,11.85
2022-11-16T00:11:16.051Z,11.81
2022-11-16T00:13:46.165Z,11.37
2022-11-16T00:16:16.946Z,11.80
2022-11-16T00:18:45.402Z,11.79
2022-11-16T00:21:13.141Z,11.80
2022-11-16T00:23:41.026Z,11.64
2022-11-16T00:26:11.205Z,11.72
2022-11-16T00:28:39.021Z,11.78
2022-11-16T00:31:08.937Z,11.59
2022-11-16T00:33:37.159Z,11.37
2022-11-16T00:36:06.477Z,11.77
2022-11-16T00:38:34.910Z,11.80
2022-11-16T00:41:03.060Z,11.78
2022-11-16T00:43:30.901Z,11.80
2022-11-16T00:45:58.659Z,11.81
2022-11-16T00:48:27.810Z,11.83
2022-11-16T00:50:55.787Z,11.81
2022-11-16T00:53:24.052Z,11.84
2022-11-16T00:55:51.942Z,11.80
2022-11-16T00:58:21.265Z,11.89
2022-11-16T01:00:55.427Z,11.89
2022-11-16T01:03:25.200Z,11.88
2022-11-16T01:05:54.363Z,11.77
2022-11-16T01:08:22.141Z,11.05
2022-11-16T01:10:50.043Z,11.97
2022-11-16T01:13:16.886Z,11.98
2022-11-16T01:15:48.547Z,11.99
2022-11-16T01:18:16.379Z,10.95
2022-11-16T01:20:44.156Z,11.97
2022-11-16T01:23:13.283Z,10.84
2022-11-16T01:25:41.058Z,11.43
2022-11-16T01:28:09.221Z,10.92
2022-11-16T01:30:49.368Z,12.00
2022-11-16T01:33:17.506Z,12.03
2022-11-16T01:35:45.423Z,12.04
2022-11-16T01:38:17.414Z,11.98
2022-11-16T01:40:45.945Z,12.02
2022-11-16T01:43:17.622Z,11.89
2022-11-16T01:45:47.046Z,11.61
2022-11-16T01:48:21.323Z,11.98
2022-11-16T01:50:50.862Z,11.97
2022-11-16T01:53:20.855Z,11.96
2022-11-16T01:55:53.393Z,11.95
2022-11-16T01:58:33.852Z,11.95
2022-11-16T02:01:19.134Z,11.76
2022-11-16T02:03:54.061Z,11.93
2022-11-16T02:06:47.412Z,11.93
2022-11-16T02:09:54.901Z,11.90
2022-11-16T02:13:01.292Z,11.89
2022-11-16T02:15:47.260Z,11.90
2022-11-16T02:18:31.526Z,11.82
2022-11-16T02:21:09.156Z,11.87
2022-11-16T02:24:07.437Z,11.89
2022-11-16T02:27:03.515Z,11.90
2022-11-16T02:29:36.855Z,11.90
2022-11-16T02:32:11.908Z,11.91
2022-11-16T02:34:43.764Z,11.91
2022-11-16T02:37:15.761Z,11.91
2022-11-16T02:39:47.312Z,11.92
2022-11-16T02:42:20.213Z,11.92
2022-11-16T02:44:52.561Z,11.92
2022-11-16T02:47:24.106Z,11.61
2022-11-16T02:49:57.210Z,11.69
2022-11-16T02:52:28.266Z,11.95
2022-11-16T02:54:56.589Z,11.97
2022-11-16T02:57:41.274Z,11.96
2022-11-16T03:00:21.098Z,11.94
2022-11-16T03:03:04.047Z,11.94
2022-11-16T03:05:36.442Z,11.43
2022-11-16T03:08:27.459Z,11.93
2022-11-16T03:11:17.554Z,11.93
2022-11-16T03:13:46.150Z,11.91
2022-11-16T03:16:19.930Z,11.89
2022-11-16T03:18:48.649Z,11.68
2022-11-16T03:21:26.320Z,11.75
2022-11-16T03:23:54.567Z,11.85
2022-11-16T03:26:27.693Z,11.80
2022-11-16T03:29:00.541Z,11.82
2022-11-16T03:31:38.965Z,11.79
2022-11-16T03:34:13.268Z,11.72
2022-11-16T03:36:44.503Z,11.73
2022-11-16T03:39:17.654Z,11.34
2022-11-16T03:41:49.216Z,11.50
2022-11-16T03:44:20.175Z,11.72
2022-11-16T03:46:49.467Z,11.72
2022-11-16T03:49:22.021Z,11.72
2022-11-16T03:51:50.682Z,11.72
2022-11-16T03:54:18.829Z,10.62
2022-11-16T03:56:46.783Z,11.69
2022-11-16T03:59:14.593Z,11.68
2022-11-16T04:01:44.911Z,11.70
2022-11-16T04:04:29.504Z,10.89
2022-11-16T04:07:15.674Z,11.68
2022-11-16T04:10:00.930Z,11.66
2022-11-16T04:12:46.261Z,11.64
2022-11-16T04:15:31.570Z,11.63
2022-11-16T04:18:17.523Z,11.63
2022-11-16T04:21:04.141Z,11.64
2022-11-16T04:23:50.242Z,11.65
2022-11-16T04:26:18.922Z,11.66
2022-11-16T04:28:46.813Z,11.66
2022-11-16T04:31:33.055Z,11.66
2022-11-16T04:34:37.323Z,11.69
2022-11-16T04:37:24.381Z,11.74
2022-11-16T04:39:52.157Z,11.63
2022-11-16T04:42:22.278Z,11.72
2022-11-16T04:45:10.101Z,11.74
2022-11-16T04:47:46.545Z,11.74
2022-11-16T04:50:14.938Z,11.72
2022-11-16T04:52:44.985Z,11.66
2022-11-16T04:55:14.837Z,11.72
2022-11-16T04:57:44.824Z,11.72
2022-11-16T05:00:14.774Z,11.74
2022-11-16T05:02:42.671Z,11.59
2022-11-16T05:05:11.279Z,11.77
2022-11-16T05:07:42.255Z,11.78
2022-11-16T05:10:21.225Z,11.79
2022-11-16T05:12:50.511Z,11.78
2022-11-16T05:15:19.724Z,11.79
2022-11-16T05:17:48.507Z,11.79
2022-11-16T05:20:37.963Z,11.73
2022-11-16T05:23:26.452Z,11.81
2022-11-16T05:25:55.348Z,11.80
2022-11-16T05:28:23.738Z,11.78
2022-11-16T05:30:52.450Z,11.49
2022-11-16T05:33:23.751Z,11.82
2022-11-16T05:35:52.861Z,11.80
2022-11-16T05:38:22.061Z,11.78
2022-11-16T05:40:53.908Z,11.41
2022-11-16T05:43:23.328Z,11.66
2022-11-16T05:45:59.934Z,11.58
2022-11-16T05:48:27.826Z,10.35
2022-11-16T05:50:59.475Z,9.91
2022-11-16T05:53:29.355Z,10.24
2022-11-16T05:55:58.859Z,10.81
2022-11-16T05:58:28.705Z,11.13
2022-11-16T06:00:58.807Z,10.46
2022-11-16T06:03:29.263Z,10.97
2022-11-16T06:05:58.013Z,9.94
2022-11-16T06:08:28.194Z,10.19
2022-11-16T06:11:02.986Z,10.71
2022-11-16T06:13:33.044Z,8.90
2022-11-16T06:16:03.072Z,9.71
2022-11-16T06:18:33.154Z,9.38
2022-11-16T06:21:02.375Z,9.73
2022-11-16T06:23:30.353Z,9.41
2022-11-16T06:25:59.020Z,9.84
2022-11-16T06:28:29.554Z,8.98
2022-11-16T06:30:59.362Z,9.63
2022-11-16T06:33:33.352Z,9.80
2022-11-16T06:36:04.591Z,9.70
2022-11-16T06:38:33.540Z,8.61
2022-11-16T06:41:02.228Z,8.75
2022-11-16T06:43:33.142Z,8.30
2022-11-16T06:46:03.479Z,7.79
2022-11-16T06:51:42.747Z,6.70
2022-11-16T06:54:10.773Z,9.43
2022-11-16T06:56:38.644Z,7.62
2022-11-16T06:59:07.858Z,9.38
2022-11-16T07:01:37.598Z,9.40
2022-11-16T07:04:12.047Z,9.40
2022-11-16T07:06:44.363Z,9.44
2022-11-16T07:09:16.179Z,9.19
2022-11-16T07:11:45.002Z,9.48
2022-11-16T07:14:14.784Z,9.57
2022-11-16T07:16:45.732Z,9.73
2022-11-16T07:19:14.191Z,7.73
2022-11-16T07:21:43.595Z,10.08
2022-11-16T07:24:16.240Z,8.51
2022-11-16T07:26:44.154Z,8.78
2022-11-16T07:29:17.690Z,8.17
2022-11-16T07:32:06.327Z,9.97
2022-11-16T07:34:59.227Z,9.89
2022-11-16T07:37:27.915Z,10.53
2022-11-16T07:39:56.405Z,9.37
2022-11-16T07:42:26.096Z,8.42
2022-11-16T07:45:23.473Z,9.53
2022-11-16T07:47:59.083Z,10.73
2022-11-16T07:50:45.883Z,8.80
2022-11-16T07:53:13.903Z,7.93
2022-11-16T07:55:42.052Z,8.16
2022-11-16T07:58:10.948Z,9.76
2022-11-16T08:00:39.573Z,9.03
2022-11-16T08:03:21.807Z,10.75
2022-11-16T08:05:59.666Z,11.04
2022-11-16T08:08:27.689Z,11.29
2022-11-16T08:11:00.861Z,11.50
2022-11-16T08:13:31.839Z,11.28
2022-11-16T08:16:01.950Z,12.24
2022-11-16T08:18:31.615Z,13.36
2022-11-16T08:21:00.500Z,14.46
2022-11-16T08:23:30.458Z,15.22
2022-11-16T08:25:59.945Z,17.84
2022-11-16T08:28:29.296Z,19.98
2022-11-16T08:30:58.273Z,21.66
2022-11-16T08:33:26.859Z,22.87
2022-11-16T08:35:58.725Z,22.73
2022-11-16T08:38:26.780Z,21.06
2022-11-16T08:40:56.518Z,19.92
2022-11-16T08:43:26.535Z,21.09
2022-11-16T08:45:54.675Z,21.98
2022-11-16T08:48:23.266Z,21.42
2022-11-16T08:51:16.034Z,19.09
2022-11-16T08:53:43.913Z,19.25
2022-11-16T08:56:13.665Z,17.61
2022-11-16T08:58:44.376Z,20.62
2022-11-16T09:01:16.356Z,19.50
2022-11-16T09:03:45.194Z,21.43
2022-11-16T09:06:14.224Z,22.79
2022-11-16T09:08:45.080Z,21.24
2022-11-16T09:11:16.768Z,22.89
2022-11-16T09:13:44.767Z,22.39
2022-11-16T09:16:15.806Z,23.63
2022-11-16T09:18:44.223Z,23.64
2022-11-16T09:21:11.995Z,24.09
2022-11-16T09:23:39.761Z,24.02
2022-11-16T09:26:09.046Z,23.33
2022-11-16T09:28:37.153Z,22.08
2022-11-16T09:31:06.068Z,22.17
2022-11-16T09:33:35.185Z,22.70
2022-11-16T09:36:06.826Z,22.27
2022-11-16T09:38:55.739Z,23.15
2022-11-16T09:41:41.632Z,22.09
2022-11-16T09:44:18.595Z,22.08
2022-11-16T09:46:48.932Z,21.95
2022-11-16T09:49:21.607Z,20.85
2022-11-16T09:51:54.220Z,20.30
2022-11-16T09:54:25.451Z,21.57
2022-11-16T09:56:58.119Z,22.66
2022-11-16T09:59:29.852Z,22.39
2022-11-16T10:02:02.262Z,22.27
2022-11-16T10:04:39.395Z,21.57
2022-11-16T10:07:14.040Z,21.13
2022-11-16T10:09:42.485Z,20.82
2022-11-16T10:12:18.087Z,21.61
2022-11-16T10:15:31.891Z,21.65
2022-11-16T10:18:12.288Z,22.23
2022-11-16T10:21:04.352Z,23.06
2022-11-16T10:23:50.101Z,23.78
2022-11-16T10:26:28.482Z,24.75
2022-11-16T10:29:19.715Z,24.95
2022-11-16T10:32:02.349Z,25.00
2022-11-16T10:34:38.708Z,24.41
2022-11-16T10:37:08.499Z,24.17
2022-11-16T10:39:40.842Z,25.62
2022-11-16T10:42:12.817Z,25.18
2022-11-16T10:44:45.283Z,23.32
2022-11-16T10:47:21.835Z,25.73
2022-11-16T10:49:57.068Z,26.00
2022-11-16T10:52:25.098Z,26.79
2022-11-16T10:54:53.637Z,26.33
2022-11-16T10:57:23.727Z,24.96
2022-11-16T10:59:55.739Z,23.90
2022-11-16T11:02:35.896Z,21.39
2022-11-16T11:05:15.504Z,23.10
2022-11-16T11:07:46.751Z,22.25
2022-11-16T11:10:29.592Z,22.79
2022-11-16T11:13:22.043Z,21.93
2022-11-16T11:15:51.409Z,22.63
2022-11-16T11:18:26.840Z,23.76
2022-11-16T11:21:07.861Z,22.78
2022-11-16T11:23:43.438Z,22.44
2022-11-16T11:26:36.168Z,22.86
2022-11-16T11:29:16.740Z,22.55
2022-11-16T11:31:48.449Z,22.65
2022-11-16T11:34:21.429Z,24.01
2022-11-16T11:36:53.743Z,25.62
2022-11-16T11:39:33.863Z,25.20
2022-11-16T11:42:05.319Z,23.57
2022-11-16T11:44:39.574Z,23.97
2022-11-16T11:50:17.645Z,23.64
2022-11-16T11:52:58.514Z,24.06
2022-11-16T11:55:26.960Z,23.29
2022-11-16T11:57:57.322Z,22.20
2022-11-16T12:00:26.047Z,21.20
2022-11-16T12:03:22.042Z,20.10
2022-11-16T12:06:11.467Z,19.41
2022-11-16T12:08:51.601Z,18.81
2022-11-16T12:11:27.364Z,18.36
2022-11-16T12:14:14.402Z,17.67
2022-11-16T12:16:50.785Z,14.79
2022-11-16T12:19:44.459Z,17.45
2022-11-16T12:22:30.154Z,17.48
2022-11-16T12:25:16.443Z,18.56
2022-11-16T12:27:51.429Z,19.67
2022-11-16T12:30:21.856Z,19.25
2022-11-16T12:33:11.546Z,18.70
2022-11-16T12:35:51.763Z,17.92
2022-11-16T12:38:30.130Z,17.30
2022-11-16T12:41:11.858Z,16.37
2022-11-16T12:43:50.079Z,16.40
2022-11-16T12:46:28.295Z,16.04
2022-11-16T12:49:26.400Z,15.71
2022-11-16T12:52:09.936Z,15.49
2022-11-16T12:55:24.749Z,15.29
2022-11-16T12:57:58.198Z,15.03
2022-11-16T13:00:27.982Z,14.57
2022-11-16T13:03:12.653Z,14.77
2022-11-16T13:05:57.035Z,12.88
2022-11-16T13:08:37.003Z,14.73
2022-11-16T13:11:12.488Z,14.00
2022-11-16T13:13:42.039Z,15.13
2022-11-16T13:16:11.504Z,13.74
2022-11-16T13:18:42.506Z,15.34
2022-11-16T13:21:21.060Z,15.25
2022-11-16T13:24:01.959Z,14.22
2022-11-16T13:26:36.491Z,15.08
2022-11-16T13:29:15.685Z,15.13
2022-11-16T13:31:50.237Z,15.25
2022-11-16T13:34:24.426Z,15.28
2022-11-16T13:36:52.186Z,15.09
2022-11-16T13:39:42.080Z,13.24
2022-11-16T13:42:14.271Z,12.87
2022-11-16T13:44:44.255Z,14.56
2022-11-16T13:47:22.986Z,13.52
2022-11-16T13:49:53.330Z,13.87
2022-11-16T13:52:24.991Z,14.02
2022-11-16T13:55:16.029Z,13.86
2022-11-16T13:57:51.977Z,13.47
2022-11-16T14:00:24.288Z,13.85
2022-11-16T14:03:26.799Z,13.89
2022-11-16T14:05:54.716Z,13.76
2022-11-16T14:08:48.469Z,13.94
2022-11-16T14:11:33.006Z,13.32
2022-11-16T14:14:05.506Z,13.89
2022-11-16T14:16:54.489Z,13.83
2022-11-16T14:19:52.858Z,13.75
2022-11-16T14:22:39.619Z,12.96
2022-11-16T14:25:18.579Z,12.99
2022-11-16T14:27:56.489Z,13.53
2022-11-16T14:30:28.529Z,13.68
2022-11-16T14:32:58.349Z,13.68
2022-11-16T14:35:33.755Z,13.63
2022-11-16T14:38:04.670Z,13.34
2022-11-16T14:40:35.470Z,13.45
2022-11-16T14:43:16.829Z,12.59
2022-11-16T14:45:49.119Z,12.85
2022-11-16T14:48:19.033Z,13.09
2022-11-16T14:50:58.389Z,13.31
2022-11-16T14:53:28.088Z,12.73
2022-11-16T14:56:07.429Z,13.49
2022-11-16T14:58:37.112Z,13.04
2022-11-16T15:01:08.336Z,13.44
2022-11-16T15:03:41.240Z,12.05
2022-11-16T15:06:09.525Z,12.71
2022-11-16T15:08:44.206Z,13.29
2022-11-16T15:11:23.463Z,12.95
2022-11-16T15:13:52.990Z,12.36
2022-11-16T15:16:21.569Z,11.98
2022-11-16T15:19:03.120Z,12.75
2022-11-16T15:21:30.958Z,12.63
2022-11-16T15:26:46.812Z,12.37
2022-11-16T15:29:18.936Z,12.26
2022-11-16T15:31:47.783Z,11.41
2022-11-16T15:34:18.410Z,11.55
2022-11-16T15:36:47.524Z,11.70
2022-11-16T15:39:19.616Z,11.96
2022-11-16T15:41:47.827Z,11.83
2022-11-16T15:44:20.157Z,11.36
2022-11-16T15:46:50.390Z,10.78
2022-11-16T15:49:34.678Z,11.24
2022-11-16T15:52:03.090Z,10.13
2022-11-16T15:54:54.442Z,10.53
2022-11-16T15:57:24.604Z,10.64
2022-11-16T15:59:55.997Z,10.71
2022-11-16T16:02:27.401Z,11.14
2022-11-16T16:04:55.321Z,10.44
2022-11-16T16:07:40.279Z,10.40
2022-11-16T16:10:25.154Z,10.09
2022-11-16T16:12:54.721Z,10.00
2022-11-16T16:15:26.233Z,10.30
2022-11-16T16:17:55.562Z,10.37
2022-11-16T16:20:25.966Z,10.07
2022-11-16T16:22:54.544Z,8.77
2022-11-16T16:25:28.663Z,10.16
2022-11-16T16:27:58.269Z,10.06
2022-11-16T16:30:30.424Z,9.33
2022-11-16T16:32:58.561Z,8.96
2022-11-16T16:35:28.470Z,8.91
2022-11-16T16:37:59.595Z,9.57
2022-11-16T16:40:29.399Z,8.54
2022-11-16T16:42:57.974Z,9.68
2022-11-16T16:45:37.260Z,8.89
2022-11-16T16:48:05.892Z,9.50
2022-11-16T16:50:33.864Z,8.26
2022-11-16T16:53:02.373Z,8.52
2022-11-16T16:55:36.722Z,7.69
2022-11-16T16:58:06.503Z,7.15
2022-11-16T17:00:37.222Z,8.07
2022-11-16T17:03:06.692Z,7.40
2022-11-16T17:05:36.495Z,6.90
2022-11-16T17:08:05.617Z,6.81
2022-11-16T17:10:34.494Z,7.32
2022-11-16T17:13:03.941Z,6.69
2022-11-16T17:15:32.153Z,8.56
2022-11-16T17:18:01.844Z,7.41
2022-11-16T17:20:29.824Z,8.41
2022-11-16T17:22:58.025Z,8.34
2022-11-16T17:25:26.280Z,7.09
2022-11-16T17:27:54.375Z,6.68
2022-11-16T17:30:22.536Z,6.85
2022-11-16T17:32:50.653Z,6.85
2022-11-16T17:35:20.123Z,7.62
2022-11-16T17:37:48.261Z,7.92
2022-11-16T17:40:17.127Z,7.41
2022-11-16T17:42:45.873Z,5.93
2022-11-16T17:45:14.224Z,7.49
2022-11-16T17:47:42.670Z,7.08
2022-11-16T17:50:11.597Z,7.35
2022-11-16T17:52:41.625Z,7.69
2022-11-16T17:55:10.123Z,7.62
2022-11-16T17:57:37.983Z,7.42
2022-11-16T18:00:07.490Z,7.23
2022-11-16T18:02:37.171Z,6.55
2022-11-16T18:05:08.029Z,6.81
2022-11-16T18:07:43.466Z,5.54
2022-11-16T18:10:18.891Z,7.17
2022-11-16T18:12:47.621Z,7.32
2022-11-16T18:15:28.342Z,7.44
2022-11-16T18:17:58.142Z,6.53
2022-11-16T18:20:30.612Z,5.66
2022-11-16T18:23:01.659Z,5.65
2022-11-16T18:25:33.305Z,6.26
2022-11-16T18:28:01.563Z,7.49
2022-11-16T18:33:40.483Z,6.90
2022-11-16T18:36:13.783Z,5.96
2022-11-16T18:45:05.324Z,6.75
2022-11-16T18:47:39.679Z,6.86
2022-11-16T18:50:18.947Z,6.50
2022-11-16T18:52:49.582Z,6.03
2022-11-16T18:55:18.937Z,7.64
2022-11-16T18:57:50.188Z,6.22
2022-11-16T19:00:21.346Z,7.14
2022-11-16T19:02:49.840Z,5.69
2022-11-16T19:05:18.136Z,6.33
2022-11-16T19:07:49.546Z,7.14
2022-11-16T19:10:18.397Z,6.88
2022-11-16T19:12:47.391Z,5.67
2022-11-16T19:15:16.051Z,6.99
2022-11-16T19:18:19.920Z,7.44
2022-11-16T19:20:47.507Z,7.47
2022-11-16T19:23:16.519Z,7.50
2022-11-16T19:25:45.502Z,6.34
2022-11-16T19:28:13.447Z,5.80
2022-11-16T19:30:41.720Z,5.98
2022-11-16T19:33:11.810Z,5.36
2022-11-16T19:35:40.367Z,7.51
2022-11-16T19:38:08.439Z,5.32
2022-11-16T19:40:38.042Z,7.58
2022-11-16T19:43:06.206Z,7.34
2022-11-16T19:45:34.129Z,7.31
2022-11-16T19:48:02.038Z,7.73
2022-11-16T19:50:31.263Z,7.77
2022-11-16T19:52:59.323Z,7.80
2022-11-16T19:55:27.445Z,7.53
2022-11-16T19:57:55.253Z,7.87
2022-11-16T20:00:23.334Z,7.47
2022-11-16T20:02:55.965Z,7.98
2022-11-16T20:05:24.158Z,8.09
2022-11-16T20:07:53.579Z,8.19
2022-11-16T20:10:21.416Z,8.24
2022-11-16T20:12:49.647Z,8.29
2022-11-16T20:15:17.610Z,8.04
2022-11-16T20:17:45.418Z,8.44
2022-11-16T20:20:13.241Z,8.49
2022-11-16T20:22:41.356Z,6.83
2022-11-16T20:25:11.232Z,8.57
2022-11-16T20:27:38.985Z,8.27
2022-11-16T20:30:09.880Z,8.68
2022-11-16T20:32:38.049Z,8.49
2022-11-16T20:35:06.329Z,8.67
2022-11-16T20:37:34.480Z,8.44
2022-11-16T20:40:02.466Z,8.74
2022-11-16T20:42:32.541Z,7.02
2022-11-16T20:45:04.663Z,8.45
2022-11-16T20:47:34.264Z,6.39
2022-11-16T20:50:05.457Z,8.42
2022-11-16T20:52:38.208Z,8.97
2022-11-16T20:55:11.870Z,7.00
2022-11-16T20:57:46.139Z,8.92
2022-11-16T21:00:20.919Z,8.77
2022-11-16T21:02:53.064Z,4.84
2022-11-16T21:05:24.647Z,6.25
2022-11-16T21:07:55.489Z,7.61
2022-11-16T21:10:24.153Z,9.26
2022-11-16T21:13:17.610Z,8.75
2022-11-16T21:16:00.488Z,6.17
2022-11-16T21:18:41.291Z,6.25
2022-11-16T21:21:13.113Z,7.90
2022-11-16T21:23:52.407Z,9.48
2022-11-16T21:26:31.758Z,5.78
2022-11-16T21:29:16.559Z,9.65
2022-11-16T21:31:49.737Z,8.10
2022-11-16T21:34:39.766Z,6.67
2022-11-16T21:37:15.635Z,9.65
2022-11-16T21:39:49.932Z,9.75
2022-11-16T21:42:20.386Z,9.80
2022-11-16T21:44:57.775Z,9.82
2022-11-16T21:47:26.174Z,9.52
2022-11-16T21:50:24.811Z,9.87
2022-11-16T21:52:42.866Z,9.11
2022-11-16T21:55:12.133Z,9.96
2022-11-16T21:57:40.169Z,9.67
2022-11-16T22:00:11.643Z,8.90
2022-11-16T22:02:39.967Z,10.05
2022-11-16T22:05:27.599Z,9.15
2022-11-16T22:07:55.869Z,9.17
2022-11-16T22:10:23.826Z,8.47
2022-11-16T22:12:51.737Z,9.24
2022-11-16T22:15:21.357Z,9.49
2022-11-16T22:17:49.352Z,9.76
2022-11-16T22:20:18.195Z,10.21
2022-11-16T22:22:46.167Z,9.51
2022-11-16T22:25:14.264Z,9.62
2022-11-16T22:28:13.451Z,9.64
2022-11-16T22:30:31.684Z,10.29
2022-11-16T22:32:59.659Z,9.67
2022-11-16T22:35:27.633Z,10.32
2022-11-16T22:37:55.945Z,10.35
2022-11-16T22:40:24.001Z,10.04
2022-11-16T22:42:53.382Z,10.35
2022-11-16T22:45:21.229Z,10.35
2022-11-16T22:47:54.743Z,9.38
2022-11-16T22:50:24.028Z,10.28
2022-11-16T22:52:51.819Z,10.29
2022-11-16T22:55:19.642Z,10.28
2022-11-16T22:57:47.566Z,9.62
2022-11-16T23:00:16.066Z,9.34
2022-11-16T23:02:44.094Z,9.20
2022-11-16T23:05:13.760Z,10.12
2022-11-16T23:07:43.843Z,9.96
2022-11-16T23:10:12.087Z,10.30
2022-11-16T23:12:57.606Z,9.77
2022-11-16T23:15:48.726Z,10.30
2022-11-16T23:18:17.200Z,10.29
2022-11-16T23:21:04.337Z,10.29
2022-11-16T23:23:50.078Z,10.06
2022-11-16T23:26:48.908Z,9.07
2022-11-16T23:29:16.816Z,10.34
2022-11-16T23:31:45.259Z,10.28
2022-11-16T23:34:13.127Z,9.22
2022-11-16T23:36:43.135Z,10.38
2022-11-16T23:39:11.244Z,9.50
2022-11-16T23:41:56.504Z,9.67
2022-11-16T23:44:24.477Z,9.64
2022-11-16T23:46:52.400Z,10.39
2022-11-16T23:49:20.370Z,10.24
2022-11-16T23:51:49.566Z,10.39
2022-11-16T23:54:17.452Z,10.16
2022-11-16T23:56:45.314Z,9.50
2022-11-16T23:59:13.236Z,9.70
